sensor_id;sensor_type;location;lat;lon;timestamp;temperature;humidity
14893;DHT22;7538;53.626;9.906;2023-07-13T00:00:26;16.30;99.90
14893;DHT22;7538;53.626;9.906;2023-07-13T00:02:53;19.60;99.90
14893;DHT22;7538;53.626;9.906;2023-07-13T00:05:20;16.20;99.90
14893;DHT22;7538;53.626;9.906;2023-07-13T00:07:47;16.10;99.90
14893;DHT22;7538;53.626;9.906;2023-07-13T00:10:14;16.00;99.90
14893;DHT22;7538;53.626;9.906;2023-07-13T00:12:41;16.10;99.90
14893;DHT22;7538;53.626;9.906;2023-07-13T00:15:13;16.00;99.90
14893;DHT22;7538;53.626;9.906;2023-07-13T00:17:42;16.00;99.90
14893;DHT22;7538;53.626;9.906;2023-07-13T00:20:10;16.00;99.90
14893;DHT22;7538;53.626;9.906;2023-07-13T00:22:37;15.90;99.90
14893;DHT22;7538;53.626;9.906;2023-07-13T00:25:05;15.90;99.90
14893;DHT22;7538;53.626;9.906;2023-07-13T00:27:32;15.80;99.90
14893;DHT22;7538;53.626;9.906;2023-07-13T00:29:59;15.80;99.90
14893;DHT22;7538;53.626;9.906;2023-07-13T00:32:27;15.70;99.90
14893;DHT22;7538;53.626;9.906;2023-07-13T00:34:54;15.70;99.90
14893;DHT22;7538;53.626;9.906;2023-07-13T00:37:22;15.70;99.90
14893;DHT22;7538;53.626;9.906;2023-07-13T00:39:49;15.70;99.90
14893;DHT22;7538;53.626;9.906;2023-07-13T00:42:15;15.70;99.90
14893;DHT22;7538;53.626;9.906;2023-07-13T00:45:01;15.70;99.90
14893;DHT22;7538;53.626;9.906;2023-07-13T00:47:29;15.60;99.90
14893;DHT22;7538;53.626;9.906;2023-07-13T00:49:56;15.60;99.90
14893;DHT22;7538;53.626;9.906;2023-07-13T00:52:23;15.60;99.90
14893;DHT22;7538;53.626;9.906;2023-07-13T00:54:50;15.60;99.90
14893;DHT22;7538;53.626;9.906;2023-07-13T00:57:19;15.50;99.90
14893;DHT22;7538;53.626;9.906;2023-07-13T00:59:48;15.60;99.90
14893;DHT22;7538;53.626;9.906;2023-07-13T01:02:17;15.50;99.90
14893;DHT22;7538;53.626;9.906;2023-07-13T01:04:45;15.40;99.90
14893;DHT22;7538;53.626;9.906;2023-07-13T01:07:12;15.40;99.90
14893;DHT22;7538;53.626;9.906;2023-07-13T01:09:40;15.40;99.90
14893;DHT22;7538;53.626;9.906;2023-07-13T01:12:07;15.40;99.90
14893;DHT22;7538;53.626;9.906;2023-07-13T01:14:34;15.40;99.90
14893;DHT22;7538;53.626;9.906;2023-07-13T01:17:01;15.40;99.90
14893;DHT22;7538;53.626;9.906;2023-07-13T01:19:37;15.40;99.90
14893;DHT22;7538;53.626;9.906;2023-07-13T01:22:08;15.40;99.90
14893;DHT22;7538;53.626;9.906;2023-07-13T01:24:38;15.40;99.90
14893;DHT22;7538;53.626;9.906;2023-07-13T01:27:06;15.40;99.90
14893;DHT22;7538;53.626;9.906;2023-07-13T01:29:34;15.40;99.90
14893;DHT22;7538;53.626;9.906;2023-07-13T01:32:08;15.50;99.90
14893;DHT22;7538;53.626;9.906;2023-07-13T01:34:35;15.50;99.90
14893;DHT22;7538;53.626;9.906;2023-07-13T01:37:04;15.50;99.90
14893;DHT22;7538;53.626;9.906;2023-07-13T01:39:32;15.50;99.90
14893;DHT22;7538;53.626;9.906;2023-07-13T01:41:59;15.60;99.90
14893;DHT22;7538;53.626;9.906;2023-07-13T01:44:26;17.20;99.90
14893;DHT22;7538;53.626;9.906;2023-07-13T01:46:53;15.60;99.90
14893;DHT22;7538;53.626;9.906;2023-07-13T01:49:20;15.60;99.90
14893;DHT22;7538;53.626;9.906;2023-07-13T01:51:47;15.50;99.90
14893;DHT22;7538;53.626;9.906;2023-07-13T01:54:13;15.60;99.90
14893;DHT22;7538;53.626;9.906;2023-07-13T01:56:42;15.60;99.90
14893;DHT22;7538;53.626;9.906;2023-07-13T01:59:09;15.60;99.90
14893;DHT22;7538;53.626;9.906;2023-07-13T02:01:35;15.60;99.90
14893;DHT22;7538;53.626;9.906;2023-07-13T02:04:02;15.60;99.90
14893;DHT22;7538;53.626;9.906;2023-07-13T02:06:29;15.60;99.90
14893;DHT22;7538;53.626;9.906;2023-07-13T02:08:57;15.50;99.90
14893;DHT22;7538;53.626;9.906;2023-07-13T02:11:24;15.50;99.90
14893;DHT22;7538;53.626;9.906;2023-07-13T02:13:59;12.60;99.90
14893;DHT22;7538;53.626;9.906;2023-07-13T02:16:26;15.60;99.90
14893;DHT22;7538;53.626;9.906;2023-07-13T02:18:53;15.50;99.90
14893;DHT22;7538;53.626;9.906;2023-07-13T02:21:21;15.50;99.90
14893;DHT22;7538;53.626;9.906;2023-07-13T02:23:48;15.50;99.90
14893;DHT22;7538;53.626;9.906;2023-07-13T02:26:15;15.50;99.90
14893;DHT22;7538;53.626;9.906;2023-07-13T02:28:42;15.50;99.90
14893;DHT22;7538;53.626;9.906;2023-07-13T02:31:11;15.50;99.90
14893;DHT22;7538;53.626;9.906;2023-07-13T02:33:39;15.50;99.90
14893;DHT22;7538;53.626;9.906;2023-07-13T02:36:06;15.50;99.90
14893;DHT22;7538;53.626;9.906;2023-07-13T02:38:33;15.40;99.90
14893;DHT22;7538;53.626;9.906;2023-07-13T02:41:00;15.50;99.90
14893;DHT22;7538;53.626;9.906;2023-07-13T02:43:27;15.40;99.90
14893;DHT22;7538;53.626;9.906;2023-07-13T02:45:55;15.40;99.90
14893;DHT22;7538;53.626;9.906;2023-07-13T02:48:23;15.40;99.90
14893;DHT22;7538;53.626;9.906;2023-07-13T02:50:50;15.40;99.90
14893;DHT22;7538;53.626;9.906;2023-07-13T02:53:17;15.40;99.90
14893;DHT22;7538;53.626;9.906;2023-07-13T02:55:43;15.40;99.90
14893;DHT22;7538;53.626;9.906;2023-07-13T02:58:12;15.40;99.90
14893;DHT22;7538;53.626;9.906;2023-07-13T03:00:42;15.40;99.90
14893;DHT22;7538;53.626;9.906;2023-07-13T03:03:09;15.40;99.90
14893;DHT22;7538;53.626;9.906;2023-07-13T03:05:39;15.40;99.90
14893;DHT22;7538;53.626;9.906;2023-07-13T03:08:07;15.30;99.90
14893;DHT22;7538;53.626;9.906;2023-07-13T03:10:34;15.30;99.90
14893;DHT22;7538;53.626;9.906;2023-07-13T03:13:01;15.30;99.90
14893;DHT22;7538;53.626;9.906;2023-07-13T03:15:28;15.30;99.90
14893;DHT22;7538;53.626;9.906;2023-07-13T03:17:55;15.20;99.90
14893;DHT22;7538;53.626;9.906;2023-07-13T03:20:21;15.30;99.90
14893;DHT22;7538;53.626;9.906;2023-07-13T03:22:50;15.20;99.90
14893;DHT22;7538;53.626;9.906;2023-07-13T03:25:16;15.20;99.90
14893;DHT22;7538;53.626;9.906;2023-07-13T03:27:43;15.20;99.90
14893;DHT22;7538;53.626;9.906;2023-07-13T03:30:11;15.20;99.90
14893;DHT22;7538;53.626;9.906;2023-07-13T03:32:38;15.20;99.90
14893;DHT22;7538;53.626;9.906;2023-07-13T03:35:05;15.20;99.90
14893;DHT22;7538;53.626;9.906;2023-07-13T03:37:32;15.20;99.90
14893;DHT22;7538;53.626;9.906;2023-07-13T03:40:00;15.20;99.90
14893;DHT22;7538;53.626;9.906;2023-07-13T03:42:27;15.20;99.90
14893;DHT22;7538;53.626;9.906;2023-07-13T03:44:54;15.20;99.90
14893;DHT22;7538;53.626;9.906;2023-07-13T03:47:21;15.20;99.90
14893;DHT22;7538;53.626;9.906;2023-07-13T03:49:48;15.20;99.90
14893;DHT22;7538;53.626;9.906;2023-07-13T03:52:15;15.20;99.90
14893;DHT22;7538;53.626;9.906;2023-07-13T03:54:42;15.20;99.90
14893;DHT22;7538;53.626;9.906;2023-07-13T03:57:10;15.20;99.90
14893;DHT22;7538;53.626;9.906;2023-07-13T03:59:37;15.20;99.90
14893;DHT22;7538;53.626;9.906;2023-07-13T04:02:04;15.20;99.90
14893;DHT22;7538;53.626;9.906;2023-07-13T04:04:31;15.30;99.90
14893;DHT22;7538;53.626;9.906;2023-07-13T04:06:58;15.30;99.90
14893;DHT22;7538;53.626;9.906;2023-07-13T04:09:24;17.00;99.90
14893;DHT22;7538;53.626;9.906;2023-07-13T04:11:51;15.30;99.90
14893;DHT22;7538;53.626;9.906;2023-07-13T04:14:19;15.30;99.90
14893;DHT22;7538;53.626;9.906;2023-07-13T04:16:46;15.30;99.90
14893;DHT22;7538;53.626;9.906;2023-07-13T04:19:13;15.30;99.90
14893;DHT22;7538;53.626;9.906;2023-07-13T04:21:40;15.40;99.90
14893;DHT22;7538;53.626;9.906;2023-07-13T04:24:07;15.30;99.90
14893;DHT22;7538;53.626;9.906;2023-07-13T04:26:34;15.30;99.90
14893;DHT22;7538;53.626;9.906;2023-07-13T04:29:04;15.40;99.90
14893;DHT22;7538;53.626;9.906;2023-07-13T04:31:33;15.40;99.90
14893;DHT22;7538;53.626;9.906;2023-07-13T04:33:59;15.40;99.90
14893;DHT22;7538;53.626;9.906;2023-07-13T04:36:27;15.50;99.90
14893;DHT22;7538;53.626;9.906;2023-07-13T04:38:53;15.60;99.90
14893;DHT22;7538;53.626;9.906;2023-07-13T04:41:21;15.60;99.90
14893;DHT22;7538;53.626;9.906;2023-07-13T04:43:48;15.70;99.90
14893;DHT22;7538;53.626;9.906;2023-07-13T04:46:16;15.70;99.90
14893;DHT22;7538;53.626;9.906;2023-07-13T04:48:46;15.80;99.90
14893;DHT22;7538;53.626;9.906;2023-07-13T04:51:12;15.90;99.90
14893;DHT22;7538;53.626;9.906;2023-07-13T04:53:39;15.90;99.90
14893;DHT22;7538;53.626;9.906;2023-07-13T04:56:06;16.10;99.90
14893;DHT22;7538;53.626;9.906;2023-07-13T04:58:33;16.10;99.90
14893;DHT22;7538;53.626;9.906;2023-07-13T05:01:01;16.20;99.90
14893;DHT22;7538;53.626;9.906;2023-07-13T05:03:28;16.30;99.90
14893;DHT22;7538;53.626;9.906;2023-07-13T05:05:58;16.40;99.90
14893;DHT22;7538;53.626;9.906;2023-07-13T05:08:25;18.30;99.90
14893;DHT22;7538;53.626;9.906;2023-07-13T05:10:52;16.70;99.90
14893;DHT22;7538;53.626;9.906;2023-07-13T05:13:19;17.20;99.90
14893;DHT22;7538;53.626;9.906;2023-07-13T05:15:47;17.20;99.90
14893;DHT22;7538;53.626;9.906;2023-07-13T05:18:21;17.60;99.90
14893;DHT22;7538;53.626;9.906;2023-07-13T05:20:57;18.00;99.90
14893;DHT22;7538;53.626;9.906;2023-07-13T05:23:24;18.30;99.90
14893;DHT22;7538;53.626;9.906;2023-07-13T05:25:51;18.60;99.90
14893;DHT22;7538;53.626;9.906;2023-07-13T05:28:18;18.90;99.90
14893;DHT22;7538;53.626;9.906;2023-07-13T05:30:45;19.10;99.90
14893;DHT22;7538;53.626;9.906;2023-07-13T05:33:12;19.10;99.90
14893;DHT22;7538;53.626;9.906;2023-07-13T05:35:39;19.10;99.90
14893;DHT22;7538;53.626;9.906;2023-07-13T05:38:07;19.10;99.90
14893;DHT22;7538;53.626;9.906;2023-07-13T05:40:34;19.10;99.90
14893;DHT22;7538;53.626;9.906;2023-07-13T05:43:01;19.00;99.90
14893;DHT22;7538;53.626;9.906;2023-07-13T05:45:28;18.90;99.90
14893;DHT22;7538;53.626;9.906;2023-07-13T05:47:54;18.90;99.90
14893;DHT22;7538;53.626;9.906;2023-07-13T05:50:21;18.90;99.90
14893;DHT22;7538;53.626;9.906;2023-07-13T05:52:48;18.90;99.90
14893;DHT22;7538;53.626;9.906;2023-07-13T05:55:16;18.90;99.90
14893;DHT22;7538;53.626;9.906;2023-07-13T05:57:43;19.00;99.90
14893;DHT22;7538;53.626;9.906;2023-07-13T06:00:11;18.80;99.90
14893;DHT22;7538;53.626;9.906;2023-07-13T06:02:38;18.80;99.90
14893;DHT22;7538;53.626;9.906;2023-07-13T06:05:05;18.70;99.90
14893;DHT22;7538;53.626;9.906;2023-07-13T06:07:32;18.70;99.90
14893;DHT22;7538;53.626;9.906;2023-07-13T06:09:59;18.60;99.90
14893;DHT22;7538;53.626;9.906;2023-07-13T06:12:27;18.70;99.90
14893;DHT22;7538;53.626;9.906;2023-07-13T06:14:54;18.70;99.90
14893;DHT22;7538;53.626;9.906;2023-07-13T06:17:21;18.70;99.90
14893;DHT22;7538;53.626;9.906;2023-07-13T06:19:48;18.70;99.90
14893;DHT22;7538;53.626;9.906;2023-07-13T06:22:14;18.70;99.90
14893;DHT22;7538;53.626;9.906;2023-07-13T06:24:41;18.80;99.90
14893;DHT22;7538;53.626;9.906;2023-07-13T06:27:08;18.80;99.90
14893;DHT22;7538;53.626;9.906;2023-07-13T06:29:36;18.90;99.90
14893;DHT22;7538;53.626;9.906;2023-07-13T06:32:04;19.00;99.90
14893;DHT22;7538;53.626;9.906;2023-07-13T06:34:31;19.00;99.90
14893;DHT22;7538;53.626;9.906;2023-07-13T06:36:57;19.10;99.90
14893;DHT22;7538;53.626;9.906;2023-07-13T06:39:24;19.20;99.90
14893;DHT22;7538;53.626;9.906;2023-07-13T06:41:51;19.20;99.90
14893;DHT22;7538;53.626;9.906;2023-07-13T06:44:18;19.20;99.90
14893;DHT22;7538;53.626;9.906;2023-07-13T06:46:46;19.30;99.90
14893;DHT22;7538;53.626;9.906;2023-07-13T06:49:13;19.50;99.90
14893;DHT22;7538;53.626;9.906;2023-07-13T06:51:40;19.70;99.90
14893;DHT22;7538;53.626;9.906;2023-07-13T06:54:06;19.90;99.90
14893;DHT22;7538;53.626;9.906;2023-07-13T06:56:33;20.10;99.90
14893;DHT22;7538;53.626;9.906;2023-07-13T06:59:00;20.30;99.90
14893;DHT22;7538;53.626;9.906;2023-07-13T07:01:27;18.80;99.90
14893;DHT22;7538;53.626;9.906;2023-07-13T07:03:55;20.70;99.90
14893;DHT22;7538;53.626;9.906;2023-07-13T07:06:22;20.80;99.90
14893;DHT22;7538;53.626;9.906;2023-07-13T07:08:50;21.10;99.90
14893;DHT22;7538;53.626;9.906;2023-07-13T07:11:19;21.30;99.90
14893;DHT22;7538;53.626;9.906;2023-07-13T07:13:48;21.80;99.90
14893;DHT22;7538;53.626;9.906;2023-07-13T07:16:15;22.30;99.90
14893;DHT22;7538;53.626;9.906;2023-07-13T07:18:41;22.80;99.90
14893;DHT22;7538;53.626;9.906;2023-07-13T07:21:10;23.10;99.90
14893;DHT22;7538;53.626;9.906;2023-07-13T07:23:37;23.60;99.90
14893;DHT22;7538;53.626;9.906;2023-07-13T07:26:04;24.30;99.90
14893;DHT22;7538;53.626;9.906;2023-07-13T07:28:31;24.80;99.90
14893;DHT22;7538;53.626;9.906;2023-07-13T07:30:58;25.90;99.90
14893;DHT22;7538;53.626;9.906;2023-07-13T07:33:25;27.30;97.80
14893;DHT22;7538;53.626;9.906;2023-07-13T07:35:52;28.10;95.00
14893;DHT22;7538;53.626;9.906;2023-07-13T07:38:20;29.00;91.70
14893;DHT22;7538;53.626;9.906;2023-07-13T07:40:47;29.40;87.90
14893;DHT22;7538;53.626;9.906;2023-07-13T07:43:14;29.60;84.50
14893;DHT22;7538;53.626;9.906;2023-07-13T07:45:41;30.20;83.10
14893;DHT22;7538;53.626;9.906;2023-07-13T07:48:08;30.90;78.80
14893;DHT22;7538;53.626;9.906;2023-07-13T07:50:35;31.50;74.20
14893;DHT22;7538;53.626;9.906;2023-07-13T07:53:02;32.10;69.10
14893;DHT22;7538;53.626;9.906;2023-07-13T07:55:34;32.40;67.80
14893;DHT22;7538;53.626;9.906;2023-07-13T07:58:01;33.20;62.70
14893;DHT22;7538;53.626;9.906;2023-07-13T08:00:28;33.30;60.40
14893;DHT22;7538;53.626;9.906;2023-07-13T08:02:57;33.20;60.70
14893;DHT22;7538;53.626;9.906;2023-07-13T08:05:24;33.10;61.10
14893;DHT22;7538;53.626;9.906;2023-07-13T08:07:51;32.40;61.00
14893;DHT22;7538;53.626;9.906;2023-07-13T08:10:18;32.10;62.60
14893;DHT22;7538;53.626;9.906;2023-07-13T08:12:46;32.30;64.80
14893;DHT22;7538;53.626;9.906;2023-07-13T08:15:15;32.50;60.20
14893;DHT22;7538;53.626;9.906;2023-07-13T08:17:42;32.40;60.60
14893;DHT22;7538;53.626;9.906;2023-07-13T08:20:09;32.40;60.50
14893;DHT22;7538;53.626;9.906;2023-07-13T08:22:36;32.20;60.00
14893;DHT22;7538;53.626;9.906;2023-07-13T08:25:04;31.70;62.30
14893;DHT22;7538;53.626;9.906;2023-07-13T08:27:30;31.20;64.80
14893;DHT22;7538;53.626;9.906;2023-07-13T08:29:59;31.10;66.50
14893;DHT22;7538;53.626;9.906;2023-07-13T08:32:25;31.30;66.70
14893;DHT22;7538;53.626;9.906;2023-07-13T08:34:52;31.50;65.70
14893;DHT22;7538;53.626;9.906;2023-07-13T08:37:19;31.20;65.40
14893;DHT22;7538;53.626;9.906;2023-07-13T08:39:46;31.10;65.80
14893;DHT22;7538;53.626;9.906;2023-07-13T08:42:31;30.90;66.10
14893;DHT22;7538;53.626;9.906;2023-07-13T08:45:07;32.40;61.50
14893;DHT22;7538;53.626;9.906;2023-07-13T08:47:39;33.60;59.60
14893;DHT22;7538;53.626;9.906;2023-07-13T08:50:11;34.90;54.50
14893;DHT22;7538;53.626;9.906;2023-07-13T08:52:41;36.30;52.20
14893;DHT22;7538;53.626;9.906;2023-07-13T08:55:13;38.00;49.70
14893;DHT22;7538;53.626;9.906;2023-07-13T08:57:41;39.20;44.90
14893;DHT22;7538;53.626;9.906;2023-07-13T09:00:12;38.70;42.80
14893;DHT22;7538;53.626;9.906;2023-07-13T09:02:44;37.80;42.90
14893;DHT22;7538;53.626;9.906;2023-07-13T09:05:15;36.80;44.70
14893;DHT22;7538;53.626;9.906;2023-07-13T09:08:01;36.10;44.90
14893;DHT22;7538;53.626;9.906;2023-07-13T09:10:34;35.20;46.00
14893;DHT22;7538;53.626;9.906;2023-07-13T09:13:20;34.80;47.50
14893;DHT22;7538;53.626;9.906;2023-07-13T09:15:50;35.20;47.00
14893;DHT22;7538;53.626;9.906;2023-07-13T09:18:23;35.00;47.70
14893;DHT22;7538;53.626;9.906;2023-07-13T09:20:55;35.10;46.70
14893;DHT22;7538;53.626;9.906;2023-07-13T09:23:26;35.80;47.20
14893;DHT22;7538;53.626;9.906;2023-07-13T09:26:00;37.20;44.60
14893;DHT22;7538;53.626;9.906;2023-07-13T09:28:29;38.20;42.40
14893;DHT22;7538;53.626;9.906;2023-07-13T09:31:06;38.50;41.40
14893;DHT22;7538;53.626;9.906;2023-07-13T09:33:33;38.10;41.00
14893;DHT22;7538;53.626;9.906;2023-07-13T09:36:01;37.70;42.30
14893;DHT22;7538;53.626;9.906;2023-07-13T09:38:29;38.00;42.40
14893;DHT22;7538;53.626;9.906;2023-07-13T09:41:14;37.70;40.80
14893;DHT22;7538;53.626;9.906;2023-07-13T09:44:06;37.30;41.30
14893;DHT22;7538;53.626;9.906;2023-07-13T09:46:36;36.80;43.40
14893;DHT22;7538;53.626;9.906;2023-07-13T09:49:03;37.10;42.60
14893;DHT22;7538;53.626;9.906;2023-07-13T09:51:30;37.70;42.80
14893;DHT22;7538;53.626;9.906;2023-07-13T09:53:56;37.60;41.50
14893;DHT22;7538;53.626;9.906;2023-07-13T09:56:26;36.90;40.80
14893;DHT22;7538;53.626;9.906;2023-07-13T09:58:53;35.90;41.80
14893;DHT22;7538;53.626;9.906;2023-07-13T10:01:32;34.70;43.50
14893;DHT22;7538;53.626;9.906;2023-07-13T10:04:00;33.20;45.10
14893;DHT22;7538;53.626;9.906;2023-07-13T10:06:27;32.00;47.70
14893;DHT22;7538;53.626;9.906;2023-07-13T10:08:56;30.90;50.30
14893;DHT22;7538;53.626;9.906;2023-07-13T10:11:26;29.90;53.60
14893;DHT22;7538;53.626;9.906;2023-07-13T10:13:56;29.80;57.90
14893;DHT22;7538;53.626;9.906;2023-07-13T10:16:26;31.00;53.80
14893;DHT22;7538;53.626;9.906;2023-07-13T10:19:01;32.80;51.00
14893;DHT22;7538;53.626;9.906;2023-07-13T10:21:33;33.10;46.70
14893;DHT22;7538;53.626;9.906;2023-07-13T10:24:06;32.90;47.70
14893;DHT22;7538;53.626;9.906;2023-07-13T10:26:45;33.50;47.70
14893;DHT22;7538;53.626;9.906;2023-07-13T10:29:14;34.50;46.10
14893;DHT22;7538;53.626;9.906;2023-07-13T10:31:45;35.60;44.20
14893;DHT22;7538;53.626;9.906;2023-07-13T10:34:13;36.90;41.50
14893;DHT22;7538;53.626;9.906;2023-07-13T10:36:43;37.50;40.80
14893;DHT22;7538;53.626;9.906;2023-07-13T10:39:16;36.90;39.20
14893;DHT22;7538;53.626;9.906;2023-07-13T10:41:46;36.10;39.30
14893;DHT22;7538;53.626;9.906;2023-07-13T10:44:20;35.20;40.70
14893;DHT22;7538;53.626;9.906;2023-07-13T10:46:52;34.50;42.20
14893;DHT22;7538;53.626;9.906;2023-07-13T10:49:22;34.00;42.00
14893;DHT22;7538;53.626;9.906;2023-07-13T10:51:49;34.00;42.50
14893;DHT22;7538;53.626;9.906;2023-07-13T10:54:19;34.10;42.20
14893;DHT22;7538;53.626;9.906;2023-07-13T10:56:50;33.70;42.30
14893;DHT22;7538;53.626;9.906;2023-07-13T10:59:20;33.50;43.50
14893;DHT22;7538;53.626;9.906;2023-07-13T11:01:56;34.10;43.80
14893;DHT22;7538;53.626;9.906;2023-07-13T11:04:26;34.30;42.50
14893;DHT22;7538;53.626;9.906;2023-07-13T11:06:57;34.10;42.50
14893;DHT22;7538;53.626;9.906;2023-07-13T11:09:34;33.30;42.60
14893;DHT22;7538;53.626;9.906;2023-07-13T11:12:07;32.20;43.20
14893;DHT22;7538;53.626;9.906;2023-07-13T11:14:36;31.00;44.80
14893;DHT22;7538;53.626;9.906;2023-07-13T11:17:35;30.10;47.20
14893;DHT22;7538;53.626;9.906;2023-07-13T11:20:32;29.50;50.30
14893;DHT22;7538;53.626;9.906;2023-07-13T11:23:20;29.10;52.30
14893;DHT22;7538;53.626;9.906;2023-07-13T11:25:53;28.60;52.60
14893;DHT22;7538;53.626;9.906;2023-07-13T11:28:23;28.20;55.40
14893;DHT22;7538;53.626;9.906;2023-07-13T11:31:01;28.70;55.90
14893;DHT22;7538;53.626;9.906;2023-07-13T11:33:52;29.20;51.80
14893;DHT22;7538;53.626;9.906;2023-07-13T11:36:23;29.50;50.60
14893;DHT22;7538;53.626;9.906;2023-07-13T11:38:58;29.50;52.60
14893;DHT22;7538;53.626;9.906;2023-07-13T11:41:28;29.40;54.80
14893;DHT22;7538;53.626;9.906;2023-07-13T11:44:07;29.20;51.00
14893;DHT22;7538;53.626;9.906;2023-07-13T11:46:34;28.90;49.80
14893;DHT22;7538;53.626;9.906;2023-07-13T11:49:01;28.60;52.30
14893;DHT22;7538;53.626;9.906;2023-07-13T11:51:33;28.40;55.30
14893;DHT22;7538;53.626;9.906;2023-07-13T11:54:03;28.20;56.20
14893;DHT22;7538;53.626;9.906;2023-07-13T11:56:31;28.20;56.20
14893;DHT22;7538;53.626;9.906;2023-07-13T11:59:05;27.90;56.70
14893;DHT22;7538;53.626;9.906;2023-07-13T12:01:32;27.80;57.30
14893;DHT22;7538;53.626;9.906;2023-07-13T12:04:01;27.70;57.50
14893;DHT22;7538;53.626;9.906;2023-07-13T12:06:32;27.40;59.90
14893;DHT22;7538;53.626;9.906;2023-07-13T12:09:02;26.60;65.60
14893;DHT22;7538;53.626;9.906;2023-07-13T12:11:30;24.20;72.00
14893;DHT22;7538;53.626;9.906;2023-07-13T12:13:57;25.00;84.10
14893;DHT22;7538;53.626;9.906;2023-07-13T12:16:29;24.20;91.10
14893;DHT22;7538;53.626;9.906;2023-07-13T12:18:59;20.20;96.40
14893;DHT22;7538;53.626;9.906;2023-07-13T12:21:32;22.50;99.90
14893;DHT22;7538;53.626;9.906;2023-07-13T12:23:59;21.70;99.90
14893;DHT22;7538;53.626;9.906;2023-07-13T12:26:28;21.20;99.90
14893;DHT22;7538;53.626;9.906;2023-07-13T12:28:56;20.70;99.90
14893;DHT22;7538;53.626;9.906;2023-07-13T12:31:33;20.30;99.90
14893;DHT22;7538;53.626;9.906;2023-07-13T12:34:03;20.10;99.90
14893;DHT22;7538;53.626;9.906;2023-07-13T12:36:36;19.90;99.90
14893;DHT22;7538;53.626;9.906;2023-07-13T12:39:13;20.10;99.90
14893;DHT22;7538;53.626;9.906;2023-07-13T12:41:40;20.50;99.90
14893;DHT22;7538;53.626;9.906;2023-07-13T12:44:13;20.90;99.90
14893;DHT22;7538;53.626;9.906;2023-07-13T12:46:52;21.40;99.90
14893;DHT22;7538;53.626;9.906;2023-07-13T12:49:24;21.80;99.90
14893;DHT22;7538;53.626;9.906;2023-07-13T12:51:56;22.20;99.90
14893;DHT22;7538;53.626;9.906;2023-07-13T12:54:24;22.50;99.90
14893;DHT22;7538;53.626;9.906;2023-07-13T12:56:53;22.70;99.90
14893;DHT22;7538;53.626;9.906;2023-07-13T12:59:22;22.90;99.90
14893;DHT22;7538;53.626;9.906;2023-07-13T13:01:51;23.10;99.90
14893;DHT22;7538;53.626;9.906;2023-07-13T13:04:20;23.10;99.90
14893;DHT22;7538;53.626;9.906;2023-07-13T13:06:48;23.20;99.90
14893;DHT22;7538;53.626;9.906;2023-07-13T13:09:17;23.20;99.90
14893;DHT22;7538;53.626;9.906;2023-07-13T13:11:45;23.20;99.90
14893;DHT22;7538;53.626;9.906;2023-07-13T13:14:12;23.00;99.90
14893;DHT22;7538;53.626;9.906;2023-07-13T13:16:46;22.80;99.90
14893;DHT22;7538;53.626;9.906;2023-07-13T13:19:17;22.70;99.90
14893;DHT22;7538;53.626;9.906;2023-07-13T13:21:45;22.80;99.90
14893;DHT22;7538;53.626;9.906;2023-07-13T13:24:15;23.00;99.90
14893;DHT22;7538;53.626;9.906;2023-07-13T13:26:44;23.00;99.90
14893;DHT22;7538;53.626;9.906;2023-07-13T13:29:14;23.00;99.90
14893;DHT22;7538;53.626;9.906;2023-07-13T13:31:42;23.00;99.90
14893;DHT22;7538;53.626;9.906;2023-07-13T13:34:10;23.10;99.90
14893;DHT22;7538;53.626;9.906;2023-07-13T13:36:38;23.20;99.90
14893;DHT22;7538;53.626;9.906;2023-07-13T13:39:18;23.40;99.90
14893;DHT22;7538;53.626;9.906;2023-07-13T13:41:47;23.50;99.90
14893;DHT22;7538;53.626;9.906;2023-07-13T13:44:15;23.70;99.90
14893;DHT22;7538;53.626;9.906;2023-07-13T13:46:45;23.90;99.90
14893;DHT22;7538;53.626;9.906;2023-07-13T13:49:14;24.00;99.90
14893;DHT22;7538;53.626;9.906;2023-07-13T13:51:41;23.90;99.90
14893;DHT22;7538;53.626;9.906;2023-07-13T13:54:11;23.90;99.90
14893;DHT22;7538;53.626;9.906;2023-07-13T13:56:39;23.80;99.90
14893;DHT22;7538;53.626;9.906;2023-07-13T13:59:07;23.60;99.90
14893;DHT22;7538;53.626;9.906;2023-07-13T14:01:34;23.50;99.90
14893;DHT22;7538;53.626;9.906;2023-07-13T14:04:01;23.40;99.90
14893;DHT22;7538;53.626;9.906;2023-07-13T14:06:29;23.40;99.90
14893;DHT22;7538;53.626;9.906;2023-07-13T14:08:56;23.50;99.90
14893;DHT22;7538;53.626;9.906;2023-07-13T14:11:22;23.60;99.90
14893;DHT22;7538;53.626;9.906;2023-07-13T14:13:52;23.60;99.90
14893;DHT22;7538;53.626;9.906;2023-07-13T14:16:22;23.60;99.90
14893;DHT22;7538;53.626;9.906;2023-07-13T14:18:53;23.60;99.90
14893;DHT22;7538;53.626;9.906;2023-07-13T14:21:22;23.60;99.90
14893;DHT22;7538;53.626;9.906;2023-07-13T14:23:49;23.40;99.90
14893;DHT22;7538;53.626;9.906;2023-07-13T14:26:18;23.30;99.90
14893;DHT22;7538;53.626;9.906;2023-07-13T14:28:47;23.20;99.90
14893;DHT22;7538;53.626;9.906;2023-07-13T14:31:16;23.30;99.90
14893;DHT22;7538;53.626;9.906;2023-07-13T14:33:45;23.40;99.90
14893;DHT22;7538;53.626;9.906;2023-07-13T14:36:26;23.40;99.90
14893;DHT22;7538;53.626;9.906;2023-07-13T14:38:53;23.50;99.90
14893;DHT22;7538;53.626;9.906;2023-07-13T14:41:20;23.40;99.90
14893;DHT22;7538;53.626;9.906;2023-07-13T14:43:47;23.40;99.90
14893;DHT22;7538;53.626;9.906;2023-07-13T14:46:24;23.30;99.90
14893;DHT22;7538;53.626;9.906;2023-07-13T14:49:00;23.30;99.90
14893;DHT22;7538;53.626;9.906;2023-07-13T14:51:27;23.20;99.90
14893;DHT22;7538;53.626;9.906;2023-07-13T14:53:54;23.10;99.90
14893;DHT22;7538;53.626;9.906;2023-07-13T14:56:21;23.10;99.90
14893;DHT22;7538;53.626;9.906;2023-07-13T14:58:48;23.10;99.90
14893;DHT22;7538;53.626;9.906;2023-07-13T15:01:15;23.20;99.90
14893;DHT22;7538;53.626;9.906;2023-07-13T15:03:45;23.40;99.90
14893;DHT22;7538;53.626;9.906;2023-07-13T15:06:14;23.50;99.90
14893;DHT22;7538;53.626;9.906;2023-07-13T15:08:40;23.60;99.90
14893;DHT22;7538;53.626;9.906;2023-07-13T15:11:08;23.60;99.90
14893;DHT22;7538;53.626;9.906;2023-07-13T15:13:37;23.60;99.90
14893;DHT22;7538;53.626;9.906;2023-07-13T15:16:05;23.70;99.90
14893;DHT22;7538;53.626;9.906;2023-07-13T15:18:39;23.80;99.80
14893;DHT22;7538;53.626;9.906;2023-07-13T15:21:08;23.90;99.30
14893;DHT22;7538;53.626;9.906;2023-07-13T15:23:40;23.90;98.20
14893;DHT22;7538;53.626;9.906;2023-07-13T15:26:11;23.80;96.30
14893;DHT22;7538;53.626;9.906;2023-07-13T15:28:39;23.80;96.30
14893;DHT22;7538;53.626;9.906;2023-07-13T15:31:18;23.60;96.20
14893;DHT22;7538;53.626;9.906;2023-07-13T15:33:45;23.40;96.90
14893;DHT22;7538;53.626;9.906;2023-07-13T15:36:13;23.30;97.00
14893;DHT22;7538;53.626;9.906;2023-07-13T15:38:42;23.30;96.50
14893;DHT22;7538;53.626;9.906;2023-07-13T15:41:17;23.20;96.00
14893;DHT22;7538;53.626;9.906;2023-07-13T15:43:46;23.30;96.40
14893;DHT22;7538;53.626;9.906;2023-07-13T15:46:13;23.30;96.60
14893;DHT22;7538;53.626;9.906;2023-07-13T15:48:40;23.30;96.40
14893;DHT22;7538;53.626;9.906;2023-07-13T15:51:12;23.30;96.70
14893;DHT22;7538;53.626;9.906;2023-07-13T15:53:42;23.30;96.60
14893;DHT22;7538;53.626;9.906;2023-07-13T15:56:18;23.10;96.20